Badger Spring Valley, Nevada Weather observations

Data are for 10 minute period ending at time listed.
 Day   Time   Solar   Ave.   Ave.  Ave.  Vector  Max.   Baro.   Total    
  of    of     Rad.   Air    Rel.  Wind   Wind   Wind  Press.  Precip.   
Year   Day            Temp.  Hum.  Speed  Dir.   Gust                    
2017   (PST)  Kw/m2    F      %     mph   deg.    mph    mb.     in.     
-------------------------------------------------------------------------
  83    6:20   0.10   39.3    48    4.3   320     5.6   834.4    0.00 
  83    6:30   0.13   41.6    45    4.1   310     5.6   834.5    0.00 
  83    6:40   0.17   44.0    40    5.9   355     8.6   834.5    0.00 
  83    6:50   0.20   45.5    37    5.5   360     7.8   834.5    0.00 
  83    7:00   0.24   46.3    36    4.6   355     6.2   834.4    0.00 
  83    7:10   0.28   47.3    35    4.0    23     6.1   834.5    0.00 
  83    7:20   0.32   48.1    33    3.0    29     4.4   834.5    0.00 
  83    7:30   0.36   48.8    32    2.8    51     5.3   834.5    0.00 
  83    7:40   0.41   48.5    33    5.3    95     7.7   834.4    0.00 
  83    7:50   0.45   48.6    32    4.5   107     7.5   834.5    0.00 
  83    8:00   0.48   49.1    32    3.2   110     7.2   834.6    0.00 
  83    8:10   0.53   49.0    32    4.6   120     7.2   834.7    0.00 
  83    8:20   0.56   49.6    31    5.0   119     8.0   834.6    0.00 
  83    8:30   0.60   50.1    31    4.5   126     7.8   834.6    0.00 
  83    8:40   0.64   50.1    31    5.5   123     8.6   834.6    0.00 
  83    8:50   0.67   50.6    30    5.2   135     9.5   834.7    0.00 
  83    9:00   0.70   51.9    29    6.8   142    10.7   834.7    0.00 
  83    9:10   0.74   51.6    29    7.0   145    12.0   834.7    0.00 
  83    9:20   0.65   52.1    29    7.5   155    11.3   835.0    0.00 
  83    9:30   0.68   51.6    29    8.0   155    14.1   835.2    0.00 
  83    9:40   0.82   52.4    28    8.8   155    15.0   835.2    0.00 
  83    9:50   0.85   52.2    28    7.8   150    12.2   835.2    0.00 
  83   10:00   0.88   52.6    28    6.7   138    11.8   835.2    0.00 
  83   10:10   0.90   52.6    28    6.8   144    11.5   835.3    0.00 
  83   10:20   0.94   53.5    28    6.3   165    12.3   835.2    0.00 
  83   10:30   1.01   53.9    27    7.6   135    13.4   835.2    0.00 
  83   10:40   0.94   54.1    26    7.6   147    15.6   835.1    0.00 
  83   10:50   0.88   53.9    26    8.3   148    15.1   835.0    0.00 
  83   11:00   0.72   54.5    26    7.9   155    15.2   835.0    0.00 
  83   11:10   0.75   54.0    27   10.6   131    17.2   834.8    0.00 
  83   11:20   0.84   54.2    26    9.6   129    17.3   834.7    0.00 
  83   11:30   1.08   55.3    26    9.2   131    15.5   834.7    0.00 
  83   11:40   1.02   56.6    24   10.0   162    16.1   834.8    0.00 
  83   11:50   1.08   56.6    24    9.4   143    16.8   834.7    0.00 
  83   12:00   0.96   57.1    23   10.0   154    15.9   834.5    0.00 
  83   12:10   0.79   57.4    22    8.0   178    16.6   834.4    0.00 
  83   12:20   0.93   57.9    23    8.0   170    13.9   834.3    0.00 
  83   12:30   1.06   58.5    22    9.4   161    15.6   834.1    0.00 
  83   12:40   0.96   58.5    22    9.9   162    17.5   834.1    0.00 
  83   12:50   0.99   59.1    22   10.1   164    16.4   833.9    0.00 
  83   13:00   0.92   59.1    22    9.9   164    19.4   833.7    0.00 
  83   13:10   0.89   59.4    22   10.1   137    18.6   833.6    0.00 
  83   13:20   0.89   59.0    22   12.1   143    17.4   833.4    0.00 
  83   13:30   0.92   60.2    20   10.3   162    16.6   833.4    0.00 
  83   13:40   0.89   60.7    18   11.1   180    16.9   833.2    0.00 
  83   13:50   0.85   59.9    20   12.5   168    24.8   833.1    0.00 
  83   14:00   0.76   59.3    20   10.7   183    18.4   833.0    0.00 
  83   14:10   0.72   59.2    21   11.1   152    16.7   833.0    0.00 
  83   14:20   0.69   58.5    22   12.4   151    21.5   832.9    0.00 
  83   14:30   0.71   58.6    22   12.5   152    18.9   832.8    0.00 
  83   14:40   0.68   58.5    23   11.8   126    17.2   832.7    0.00 
  83   14:50   0.66   58.8    23   12.6   136    17.9   832.6    0.00 
  83   15:00   0.63   58.6    24   12.7   136    20.8   832.5    0.00 
  83   15:10   0.57   59.3    23   10.2   166    16.4   832.5    0.00 
  83   15:20   0.57   59.0    24    9.9   161    16.7   832.4    0.00 
  83   15:30   0.62   59.2    25   11.3   142    18.1   832.3    0.00 
  83   15:40   0.53   58.8    26   12.1   131    16.8   832.2    0.00 
  83   15:50   0.49   58.2    26   12.7   135    17.8   832.1    0.00 
  83   16:00   0.45   57.9    26   12.7   130    17.5   832.0    0.00 
  83   16:10   0.40   57.5    26   14.4   133    19.4   831.8    0.00 
  83   16:20   0.36   57.8    26   12.1   142    16.7   831.7    0.00 
  83   16:30   0.32   57.3    26   12.8   137    18.5   831.7    0.00 
  83   16:40   0.28   57.0    27   11.8   143    17.7   831.5    0.00 
  83   16:50   0.24   56.6    28   12.2   146    17.3   831.4    0.00 
  83   17:00   0.20   56.0    29   11.3   144    16.1   831.3    0.00 
  83   17:10   0.16   55.3    30   14.3   137    19.4   831.2    0.00 
  83   17:20   0.11   54.7    31   13.2   139    18.9   831.0    0.00 
  83   17:30   0.04   53.9    32   10.7   142    18.3   830.9    0.00 
  83   17:40   0.01   53.0    34   10.2   149    18.1   830.9    0.00 
  83   17:50   0.01   52.2    35    9.2   168    13.7   830.9    0.00 
  83   18:00   0.00   51.7    36    7.7   181    12.6   831.0    0.00 
  83   18:10   0.00   51.0    38    6.4   200    11.2   831.0    0.00 
  83   18:20   0.00   50.5    38    7.4   179    12.5   831.0    0.00 
  83   18:30   0.00   50.5    38    7.7   179    13.1   831.0    0.00 
  83   18:40   0.00   50.5    38    8.7   178    14.0   831.0    0.00 
  83   18:50   0.00   50.6    37    8.2   188    13.4   831.0    0.00 
  83   19:00   0.00   50.5    37    8.2   193    12.6   831.0    0.00 
  83   19:10   0.00   50.2    38    6.6   194    10.3   831.0    0.00 
  83   19:20   0.00   50.1    38    8.2   188    11.3   831.1    0.00 
  83   19:30   0.00   50.0    38    7.7   191    12.2   831.1    0.00 
  83   19:40   0.00   49.9    38    7.5   200    11.0   831.1    0.00 
  83   19:50   0.00   50.0    38    7.3   197    12.2   831.2    0.00 
  83   20:00   0.00   49.7    38    5.9   196     8.8   831.2    0.00 
  83   20:10   0.00   49.3    38    5.4   202     9.0   831.2    0.00 
  83   20:20   0.00   49.3    38    5.5   223     7.2   831.3    0.00 
  83   20:30   0.00   49.2    38    4.8   221     7.7   831.4    0.00 
  83   20:40   0.00   49.2    38    5.4   239     7.5   831.5    0.00 
  83   20:50   0.00   48.9    39    4.9   257     7.5   831.4    0.00 
  83   21:00   0.00   48.3    40    5.2   263     6.9   831.4    0.00 
  83   21:10   0.00   48.2    41    4.7   242     7.5   831.3    0.00 
  83   21:20   0.00   48.6    40    4.5   215     7.2   831.2    0.00 
  83   21:30   0.00   48.1    41    3.5   189     8.4   831.1    0.00 
  83   21:40   0.00   47.9    41    1.8   182     5.4   831.2    0.00 
  83   21:50   0.00   48.1    40    1.1   226     2.1   831.2    0.00 
  83   22:00   0.00   47.6    41    1.6   241     3.2   831.1    0.00 
  83   22:10   0.00   47.0    42    2.1   252     5.1   831.0    0.00 
  83   22:20   0.00   47.8    40    4.4   258     6.8   831.0    0.00 
  83   22:30   0.00   47.7    41    3.5   260     5.7   830.9    0.00 
  83   22:40   0.00   46.9    42    1.9   240     3.8   830.8    0.00 
  83   22:50   0.00   46.5    42    1.2   170     2.8   830.7    0.00 
  83   23:00   0.00   47.0    40    2.2   219     4.5   830.7    0.00 
  83   23:10   0.00   47.7    40    2.8   237     4.5   830.6    0.00 
  83   23:20   0.00   47.8    39    4.7   239     6.5   830.5    0.00 
  83   23:30   0.00   48.1    39    4.7   233     7.4   830.4    0.00 
  83   23:40   0.00   48.1    39    5.4   237     7.7   830.3    0.00 
  83   23:50   0.00   48.1    38    5.3   216     7.7   830.3    0.00 
  84    0:00   0.00   47.9    39    4.8   209     6.9   830.3    0.00 
  84    0:10   0.00   47.8    38    4.6   183     9.1   830.1    0.00 
  84    0:20   0.00   47.8    38    3.5   230     5.8   830.1    0.00 
  84    0:30   0.00   47.8    39    4.1   262     6.5   830.0    0.00 
  84    0:40   0.00   47.8    38    3.8   250     5.6   829.8    0.00 
  84    0:50   0.00   47.8    38    3.9   258     6.6   829.7    0.00 
  84    1:00   0.00   47.7    38    4.0   251     5.7   829.6    0.00 
  84    1:10   0.00   47.8    38    5.3   268     7.7   829.4    0.00 
  84    1:20   0.00   47.6    39    6.5   273     9.6   829.3    0.00 
  84    1:30   0.00   47.5    38    5.2   248     7.7   829.3    0.00 
  84    1:40   0.00   47.4    38    4.0   240     5.2   829.1    0.00 
  84    1:50   0.00   47.1    39    4.2   251     6.0   829.0    0.00 
  84    2:00   0.00   47.4    37    3.7   253     5.6   828.9    0.00 
  84    2:10   0.00   47.8    36    4.6   266     6.5   828.8    0.00 
  84    2:20   0.00   47.8    36    2.5   234     5.0   828.6    0.00 
  84    2:30   0.00   47.7    36    2.2   254     4.1   828.4    0.00 
  84    2:40   0.00   47.6    38    1.5   239     3.8   828.3    0.00 
  84    2:50   0.00   47.1    39    1.4   217     3.1   828.1    0.00 
  84    3:00   0.00   47.2    37    3.5   226     4.9   828.0    0.00 
  84    3:10   0.00   47.2    42    2.9   238     4.7   827.9    0.00 
  84    3:20   0.00   46.5    44    4.1   248     6.4   828.0    0.00 
  84    3:30   0.00   45.9    49    2.8   267     6.5   827.9    0.00 
  84    3:40   0.00   45.6    49    2.1   214     5.6   827.8    0.00 
  84    3:50   0.00   45.4    50    2.3   256     6.5   827.9    0.00 
  84    4:00   0.00   45.9    46    6.6   281    10.5   828.1    0.00 
  84    4:10   0.00   46.7    49    6.6   240    12.9   828.1    0.00 
  84    4:20   0.00   45.5    75   10.7   235    18.1   828.1    0.00 
  84    4:30   0.00   43.6    80   18.7   248    31.2   828.2    0.03 
  84    4:40   0.00   41.3    86   16.8   251    26.7   828.2    0.02 
  84    4:50   0.00   40.1    89   19.1   257    31.0   828.3    0.04 
  84    5:00   0.00   39.0    89   19.6   262    28.4   828.2    0.03 
  84    5:10   0.00   38.6    90   18.1   261    26.8   828.1    0.01 
  84    5:20   0.00   38.4    90   17.6   260    25.3   828.0    0.05 
  84    5:30   0.00   38.6    89   18.2   264    25.0   828.0    0.03 
  84    5:40   0.00   38.6    88   17.6   261    26.0   827.9    0.03 
  84    5:50   0.00   38.4    88   16.6   264    25.6   827.7    0.04 
  84    6:00   0.00   38.3    89   14.4   258    20.9   827.6    0.02 
  84    6:10   0.00   38.1    89   13.1   255    19.8   827.6    0.03 

Return to Badger Spring Valley graphs page.


Western Regional Climate Center,wrcc@dri.edu